Cibolo, Texas
Current Conditions -  °F | °C
As of 10:08 PM on Friday 19 Dec 2014 (Local Time) from KRND Reporting Station
Overcast Overcast  
Wind Chill: 52°   Ceiling: 1400
Heat Index: 52°   Visibility: 10mi
Dew Point: 45°   Wind: 12mph
Humidity: 76%   Direction: 360°N
Pressure: 30.17"   Gusts: NA
Location:  29.56°N, 98.23°W
Report Text: KRND 200408Z AUTO 36010KT 10SM OVC014 11/07 A3017 RMK AO2
Loading
Personal Weather Stations






























Interactive Weather Map New forecast layout! Learn more

10-Day Weather Forecast

Advertisements
Track Severe Weather on mobile